sensor_id;sensor_type;location;lat;lon;timestamp;temperature;humidity
53802;DHT22;39709;53.334;6.534;2023-04-28T00:01:15;5.40;99.90
53802;DHT22;39709;53.334;6.534;2023-04-28T00:03:41;5.20;99.90
53802;DHT22;39709;53.334;6.534;2023-04-28T00:06:07;5.00;99.90
53802;DHT22;39709;53.334;6.534;2023-04-28T00:08:33;4.80;92.70
53802;DHT22;39709;53.334;6.534;2023-04-28T00:10:59;4.90;99.90
53802;DHT22;39709;53.334;6.534;2023-04-28T00:13:25;4.90;99.90
53802;DHT22;39709;53.334;6.534;2023-04-28T00:15:51;4.70;91.30
53802;DHT22;39709;53.334;6.534;2023-04-28T00:18:18;4.80;99.90
53802;DHT22;39709;53.334;6.534;2023-04-28T00:20:44;5.00;99.90
53802;DHT22;39709;53.334;6.534;2023-04-28T00:23:09;5.20;99.90
53802;DHT22;39709;53.334;6.534;2023-04-28T00:25:35;4.90;99.90
53802;DHT22;39709;53.334;6.534;2023-04-28T00:28:01;4.90;99.90
53802;DHT22;39709;53.334;6.534;2023-04-28T00:30:28;4.90;99.90
53802;DHT22;39709;53.334;6.534;2023-04-28T00:32:54;5.10;99.90
53802;DHT22;39709;53.334;6.534;2023-04-28T00:35:20;5.00;99.90
53802;DHT22;39709;53.334;6.534;2023-04-28T00:37:46;5.20;99.90
53802;DHT22;39709;53.334;6.534;2023-04-28T00:40:12;5.10;99.90
53802;DHT22;39709;53.334;6.534;2023-04-28T00:42:37;4.90;99.90
53802;DHT22;39709;53.334;6.534;2023-04-28T00:45:05;4.90;99.90
53802;DHT22;39709;53.334;6.534;2023-04-28T00:47:32;4.80;99.90
53802;DHT22;39709;53.334;6.534;2023-04-28T00:49:59;4.90;99.90
53802;DHT22;39709;53.334;6.534;2023-04-28T00:52:26;4.20;99.90
53802;DHT22;39709;53.334;6.534;2023-04-28T00:54:53;4.00;99.90
53802;DHT22;39709;53.334;6.534;2023-04-28T00:57:19;3.90;99.90
53802;DHT22;39709;53.334;6.534;2023-04-28T00:59:44;3.90;99.90
53802;DHT22;39709;53.334;6.534;2023-04-28T01:02:10;3.80;99.90
53802;DHT22;39709;53.334;6.534;2023-04-28T01:04:45;3.80;99.90
53802;DHT22;39709;53.334;6.534;2023-04-28T01:07:11;3.70;99.90
53802;DHT22;39709;53.334;6.534;2023-04-28T01:09:37;3.90;99.90
53802;DHT22;39709;53.334;6.534;2023-04-28T01:12:02;4.00;99.90
53802;DHT22;39709;53.334;6.534;2023-04-28T01:14:28;4.50;99.90
53802;DHT22;39709;53.334;6.534;2023-04-28T01:16:55;4.50;99.90
53802;DHT22;39709;53.334;6.534;2023-04-28T01:19:21;4.50;99.90
53802;DHT22;39709;53.334;6.534;2023-04-28T01:21:48;4.30;99.90
53802;DHT22;39709;53.334;6.534;2023-04-28T01:24:14;4.30;99.90
53802;DHT22;39709;53.334;6.534;2023-04-28T01:26:40;4.40;99.90
53802;DHT22;39709;53.334;6.534;2023-04-28T01:29:05;4.30;99.90
53802;DHT22;39709;53.334;6.534;2023-04-28T01:31:31;4.60;99.90
53802;DHT22;39709;53.334;6.534;2023-04-28T01:33:57;4.60;99.90
53802;DHT22;39709;53.334;6.534;2023-04-28T01:36:23;5.10;99.90
53802;DHT22;39709;53.334;6.534;2023-04-28T01:38:49;5.30;99.90
53802;DHT22;39709;53.334;6.534;2023-04-28T01:41:16;5.20;99.90
53802;DHT22;39709;53.334;6.534;2023-04-28T01:43:41;5.20;99.90
53802;DHT22;39709;53.334;6.534;2023-04-28T01:46:08;5.30;99.90
53802;DHT22;39709;53.334;6.534;2023-04-28T01:48:34;5.30;99.90
53802;DHT22;39709;53.334;6.534;2023-04-28T01:51:00;5.40;99.90
53802;DHT22;39709;53.334;6.534;2023-04-28T01:53:26;5.40;99.90
53802;DHT22;39709;53.334;6.534;2023-04-28T01:55:52;5.50;99.90
53802;DHT22;39709;53.334;6.534;2023-04-28T01:58:18;5.90;99.90
53802;DHT22;39709;53.334;6.534;2023-04-28T02:00:44;5.80;99.90
53802;DHT22;39709;53.334;6.534;2023-04-28T02:03:10;6.10;99.90
53802;DHT22;39709;53.334;6.534;2023-04-28T02:05:36;6.10;99.90
53802;DHT22;39709;53.334;6.534;2023-04-28T02:08:02;6.30;99.90
53802;DHT22;39709;53.334;6.534;2023-04-28T02:10:27;6.30;99.90
53802;DHT22;39709;53.334;6.534;2023-04-28T02:12:53;6.40;99.90
53802;DHT22;39709;53.334;6.534;2023-04-28T02:15:19;6.50;99.90
53802;DHT22;39709;53.334;6.534;2023-04-28T02:17:46;6.50;99.90
53802;DHT22;39709;53.334;6.534;2023-04-28T02:20:11;6.70;99.90
53802;DHT22;39709;53.334;6.534;2023-04-28T02:22:39;6.50;99.90
53802;DHT22;39709;53.334;6.534;2023-04-28T02:25:06;6.70;99.90
53802;DHT22;39709;53.334;6.534;2023-04-28T02:27:33;6.60;99.90
53802;DHT22;39709;53.334;6.534;2023-04-28T02:29:59;6.50;99.90
53802;DHT22;39709;53.334;6.534;2023-04-28T02:32:25;6.50;99.90
53802;DHT22;39709;53.334;6.534;2023-04-28T02:34:54;6.80;99.90
53802;DHT22;39709;53.334;6.534;2023-04-28T02:37:20;6.70;99.90
53802;DHT22;39709;53.334;6.534;2023-04-28T02:39:46;6.80;99.90
53802;DHT22;39709;53.334;6.534;2023-04-28T02:42:11;6.80;99.90
53802;DHT22;39709;53.334;6.534;2023-04-28T02:44:37;6.80;99.90
53802;DHT22;39709;53.334;6.534;2023-04-28T02:47:03;6.60;99.90
53802;DHT22;39709;53.334;6.534;2023-04-28T02:49:29;6.60;99.90
53802;DHT22;39709;53.334;6.534;2023-04-28T02:51:55;6.70;99.90
53802;DHT22;39709;53.334;6.534;2023-04-28T02:54:21;6.70;99.90
53802;DHT22;39709;53.334;6.534;2023-04-28T02:56:56;7.00;99.90
53802;DHT22;39709;53.334;6.534;2023-04-28T02:59:23;6.80;99.90
53802;DHT22;39709;53.334;6.534;2023-04-28T03:01:49;7.00;99.90
53802;DHT22;39709;53.334;6.534;2023-04-28T03:04:14;7.00;99.90
53802;DHT22;39709;53.334;6.534;2023-04-28T03:06:41;7.10;99.90
53802;DHT22;39709;53.334;6.534;2023-04-28T03:09:07;6.90;99.90
53802;DHT22;39709;53.334;6.534;2023-04-28T03:11:33;7.00;99.90
53802;DHT22;39709;53.334;6.534;2023-04-28T03:13:59;7.10;99.90
53802;DHT22;39709;53.334;6.534;2023-04-28T03:16:24;7.20;99.90
53802;DHT22;39709;53.334;6.534;2023-04-28T03:18:50;7.00;99.90
53802;DHT22;39709;53.334;6.534;2023-04-28T03:21:16;7.10;99.90
53802;DHT22;39709;53.334;6.534;2023-04-28T03:23:42;7.10;99.90
53802;DHT22;39709;53.334;6.534;2023-04-28T03:26:07;7.30;99.90
53802;DHT22;39709;53.334;6.534;2023-04-28T03:28:33;7.30;99.90
53802;DHT22;39709;53.334;6.534;2023-04-28T03:30:59;7.10;99.90
53802;DHT22;39709;53.334;6.534;2023-04-28T03:33:24;7.30;99.90
53802;DHT22;39709;53.334;6.534;2023-04-28T03:35:50;7.10;99.90
53802;DHT22;39709;53.334;6.534;2023-04-28T03:38:16;7.20;99.90
53802;DHT22;39709;53.334;6.534;2023-04-28T03:40:42;7.10;99.90
53802;DHT22;39709;53.334;6.534;2023-04-28T03:43:07;7.40;99.90
53802;DHT22;39709;53.334;6.534;2023-04-28T03:45:33;7.10;99.90
53802;DHT22;39709;53.334;6.534;2023-04-28T03:47:59;7.30;99.90
53802;DHT22;39709;53.334;6.534;2023-04-28T03:50:24;7.10;99.90
53802;DHT22;39709;53.334;6.534;2023-04-28T03:52:50;7.30;99.90
53802;DHT22;39709;53.334;6.534;2023-04-28T03:55:16;7.40;99.90
53802;DHT22;39709;53.334;6.534;2023-04-28T03:57:41;7.20;99.90
53802;DHT22;39709;53.334;6.534;2023-04-28T04:00:08;7.20;99.90
53802;DHT22;39709;53.334;6.534;2023-04-28T04:02:34;7.20;99.90
53802;DHT22;39709;53.334;6.534;2023-04-28T04:05:00;7.10;99.90
53802;DHT22;39709;53.334;6.534;2023-04-28T04:07:26;7.20;99.90
53802;DHT22;39709;53.334;6.534;2023-04-28T04:09:51;7.30;99.90
53802;DHT22;39709;53.334;6.534;2023-04-28T04:12:17;7.10;99.90
53802;DHT22;39709;53.334;6.534;2023-04-28T04:14:43;7.10;99.90
53802;DHT22;39709;53.334;6.534;2023-04-28T04:17:08;7.10;99.90
53802;DHT22;39709;53.334;6.534;2023-04-28T04:19:34;7.10;99.90
53802;DHT22;39709;53.334;6.534;2023-04-28T04:22:00;7.10;99.90
53802;DHT22;39709;53.334;6.534;2023-04-28T04:24:25;6.90;99.90
53802;DHT22;39709;53.334;6.534;2023-04-28T04:26:51;6.80;99.90
53802;DHT22;39709;53.334;6.534;2023-04-28T04:29:17;7.00;99.90
53802;DHT22;39709;53.334;6.534;2023-04-28T04:31:42;6.90;99.90
53802;DHT22;39709;53.334;6.534;2023-04-28T04:34:10;7.00;99.90
53802;DHT22;39709;53.334;6.534;2023-04-28T04:36:36;7.00;99.90
53802;DHT22;39709;53.334;6.534;2023-04-28T04:39:01;7.00;99.90
53802;DHT22;39709;53.334;6.534;2023-04-28T04:41:27;7.30;99.90
53802;DHT22;39709;53.334;6.534;2023-04-28T04:43:53;7.00;99.90
53802;DHT22;39709;53.334;6.534;2023-04-28T04:46:19;7.10;99.90
53802;DHT22;39709;53.334;6.534;2023-04-28T04:48:44;7.10;99.90
53802;DHT22;39709;53.334;6.534;2023-04-28T04:51:10;7.30;99.90
53802;DHT22;39709;53.334;6.534;2023-04-28T04:53:36;7.30;99.90
53802;DHT22;39709;53.334;6.534;2023-04-28T04:56:02;7.30;99.90
53802;DHT22;39709;53.334;6.534;2023-04-28T04:58:29;7.70;99.90
53802;DHT22;39709;53.334;6.534;2023-04-28T05:00:55;7.10;99.90
53802;DHT22;39709;53.334;6.534;2023-04-28T05:03:20;7.40;99.90
53802;DHT22;39709;53.334;6.534;2023-04-28T05:05:46;7.30;99.90
53802;DHT22;39709;53.334;6.534;2023-04-28T05:08:13;7.40;99.90
53802;DHT22;39709;53.334;6.534;2023-04-28T05:10:39;7.40;99.90
53802;DHT22;39709;53.334;6.534;2023-04-28T05:13:05;7.10;99.90
53802;DHT22;39709;53.334;6.534;2023-04-28T05:15:30;7.50;99.90
53802;DHT22;39709;53.334;6.534;2023-04-28T05:17:56;7.40;99.90
53802;DHT22;39709;53.334;6.534;2023-04-28T05:20:22;7.10;99.90
53802;DHT22;39709;53.334;6.534;2023-04-28T05:22:48;7.30;99.90
53802;DHT22;39709;53.334;6.534;2023-04-28T05:25:14;7.30;99.90
53802;DHT22;39709;53.334;6.534;2023-04-28T05:27:40;7.60;99.90
53802;DHT22;39709;53.334;6.534;2023-04-28T05:30:07;7.30;99.90
53802;DHT22;39709;53.334;6.534;2023-04-28T05:32:33;7.30;99.90
53802;DHT22;39709;53.334;6.534;2023-04-28T05:34:59;7.30;99.90
53802;DHT22;39709;53.334;6.534;2023-04-28T05:37:25;7.10;99.90
53802;DHT22;39709;53.334;6.534;2023-04-28T05:39:51;7.20;99.90
53802;DHT22;39709;53.334;6.534;2023-04-28T05:42:17;7.40;99.90
53802;DHT22;39709;53.334;6.534;2023-04-28T05:44:42;7.40;99.90
53802;DHT22;39709;53.334;6.534;2023-04-28T05:47:08;7.40;99.90
53802;DHT22;39709;53.334;6.534;2023-04-28T05:49:34;7.50;99.90
53802;DHT22;39709;53.334;6.534;2023-04-28T05:52:00;7.10;99.90
53802;DHT22;39709;53.334;6.534;2023-04-28T05:54:25;7.20;99.90
53802;DHT22;39709;53.334;6.534;2023-04-28T05:56:52;7.20;99.90
53802;DHT22;39709;53.334;6.534;2023-04-28T05:59:17;7.50;99.90
53802;DHT22;39709;53.334;6.534;2023-04-28T06:01:44;7.60;99.90
53802;DHT22;39709;53.334;6.534;2023-04-28T06:04:10;7.30;99.90
53802;DHT22;39709;53.334;6.534;2023-04-28T06:06:35;7.40;99.90
53802;DHT22;39709;53.334;6.534;2023-04-28T06:09:02;7.60;99.90
53802;DHT22;39709;53.334;6.534;2023-04-28T06:11:28;7.40;99.90
53802;DHT22;39709;53.334;6.534;2023-04-28T06:13:53;7.60;99.90
53802;DHT22;39709;53.334;6.534;2023-04-28T06:16:19;7.40;99.90
53802;DHT22;39709;53.334;6.534;2023-04-28T06:18:45;7.60;99.90
53802;DHT22;39709;53.334;6.534;2023-04-28T06:21:11;7.30;99.90
53802;DHT22;39709;53.334;6.534;2023-04-28T06:23:37;7.40;99.90
53802;DHT22;39709;53.334;6.534;2023-04-28T06:26:05;7.50;99.90
53802;DHT22;39709;53.334;6.534;2023-04-28T06:28:31;7.40;99.90
53802;DHT22;39709;53.334;6.534;2023-04-28T06:30:56;7.60;99.90
53802;DHT22;39709;53.334;6.534;2023-04-28T06:33:24;7.50;99.90
53802;DHT22;39709;53.334;6.534;2023-04-28T06:35:50;7.70;99.90
53802;DHT22;39709;53.334;6.534;2023-04-28T06:38:16;7.80;99.90
53802;DHT22;39709;53.334;6.534;2023-04-28T06:40:41;7.70;99.90
53802;DHT22;39709;53.334;6.534;2023-04-28T06:43:07;7.80;99.90
53802;DHT22;39709;53.334;6.534;2023-04-28T06:45:33;8.10;99.90
53802;DHT22;39709;53.334;6.534;2023-04-28T06:47:59;8.10;99.90
53802;DHT22;39709;53.334;6.534;2023-04-28T06:50:24;8.00;99.90
53802;DHT22;39709;53.334;6.534;2023-04-28T06:52:50;8.20;99.90
53802;DHT22;39709;53.334;6.534;2023-04-28T06:55:16;8.20;99.90
53802;DHT22;39709;53.334;6.534;2023-04-28T06:57:42;8.10;99.90
53802;DHT22;39709;53.334;6.534;2023-04-28T07:00:09;8.30;99.90
53802;DHT22;39709;53.334;6.534;2023-04-28T07:02:35;8.20;99.90
53802;DHT22;39709;53.334;6.534;2023-04-28T07:05:02;8.40;99.90
53802;DHT22;39709;53.334;6.534;2023-04-28T07:07:28;8.60;99.90
53802;DHT22;39709;53.334;6.534;2023-04-28T07:09:54;8.50;99.90
53802;DHT22;39709;53.334;6.534;2023-04-28T07:12:21;8.50;99.90
53802;DHT22;39709;53.334;6.534;2023-04-28T07:14:46;8.80;99.90
53802;DHT22;39709;53.334;6.534;2023-04-28T07:17:12;8.90;99.90
53802;DHT22;39709;53.334;6.534;2023-04-28T07:19:38;8.80;99.90
53802;DHT22;39709;53.334;6.534;2023-04-28T07:22:03;8.80;99.90
53802;DHT22;39709;53.334;6.534;2023-04-28T07:24:29;8.90;99.90
53802;DHT22;39709;53.334;6.534;2023-04-28T07:26:55;8.80;99.90
53802;DHT22;39709;53.334;6.534;2023-04-28T07:29:22;8.70;99.90
53802;DHT22;39709;53.334;6.534;2023-04-28T07:31:48;8.60;99.90
53802;DHT22;39709;53.334;6.534;2023-04-28T07:34:14;8.70;99.90
53802;DHT22;39709;53.334;6.534;2023-04-28T07:36:40;8.60;99.90
53802;DHT22;39709;53.334;6.534;2023-04-28T07:39:06;8.60;99.90
53802;DHT22;39709;53.334;6.534;2023-04-28T07:41:36;8.60;99.90
53802;DHT22;39709;53.334;6.534;2023-04-28T07:44:02;8.80;99.90
53802;DHT22;39709;53.334;6.534;2023-04-28T07:46:29;9.00;99.90
53802;DHT22;39709;53.334;6.534;2023-04-28T07:48:55;9.10;99.90
53802;DHT22;39709;53.334;6.534;2023-04-28T07:51:21;8.90;99.90
53802;DHT22;39709;53.334;6.534;2023-04-28T07:53:47;9.00;99.90
53802;DHT22;39709;53.334;6.534;2023-04-28T07:56:12;9.00;99.90
53802;DHT22;39709;53.334;6.534;2023-04-28T07:58:38;9.00;99.90
53802;DHT22;39709;53.334;6.534;2023-04-28T08:01:04;8.90;99.90
53802;DHT22;39709;53.334;6.534;2023-04-28T08:03:29;9.00;99.90
53802;DHT22;39709;53.334;6.534;2023-04-28T08:05:55;9.00;99.90
53802;DHT22;39709;53.334;6.534;2023-04-28T08:08:21;9.20;99.90
53802;DHT22;39709;53.334;6.534;2023-04-28T08:10:46;9.20;99.90
53802;DHT22;39709;53.334;6.534;2023-04-28T08:13:12;9.20;99.90
53802;DHT22;39709;53.334;6.534;2023-04-28T08:15:41;9.40;99.90
53802;DHT22;39709;53.334;6.534;2023-04-28T08:18:07;9.40;99.90
53802;DHT22;39709;53.334;6.534;2023-04-28T08:20:33;9.40;99.90
53802;DHT22;39709;53.334;6.534;2023-04-28T08:22:58;9.40;99.90
53802;DHT22;39709;53.334;6.534;2023-04-28T08:25:24;9.40;97.80
53802;DHT22;39709;53.334;6.534;2023-04-28T08:27:50;9.30;97.90
53802;DHT22;39709;53.334;6.534;2023-04-28T08:30:16;9.30;98.10
53802;DHT22;39709;53.334;6.534;2023-04-28T08:32:42;9.40;99.90
53802;DHT22;39709;53.334;6.534;2023-04-28T08:35:08;9.40;98.40
53802;DHT22;39709;53.334;6.534;2023-04-28T08:37:34;9.20;87.90
53802;DHT22;39709;53.334;6.534;2023-04-28T08:40:00;9.30;81.90
53802;DHT22;39709;53.334;6.534;2023-04-28T08:42:30;9.50;96.60
53802;DHT22;39709;53.334;6.534;2023-04-28T08:44:57;9.40;97.30
53802;DHT22;39709;53.334;6.534;2023-04-28T08:47:35;9.30;89.60
53802;DHT22;39709;53.334;6.534;2023-04-28T08:50:04;9.40;97.80
53802;DHT22;39709;53.334;6.534;2023-04-28T08:52:30;9.40;98.60
53802;DHT22;39709;53.334;6.534;2023-04-28T08:55:01;9.50;95.60
53802;DHT22;39709;53.334;6.534;2023-04-28T08:57:36;9.60;92.00
53802;DHT22;39709;53.334;6.534;2023-04-28T09:00:03;9.60;91.60
53802;DHT22;39709;53.334;6.534;2023-04-28T09:02:29;9.40;80.90
53802;DHT22;39709;53.334;6.534;2023-04-28T09:04:55;9.40;49.20
53802;DHT22;39709;53.334;6.534;2023-04-28T09:07:20;9.40;81.60
53802;DHT22;39709;53.334;6.534;2023-04-28T09:09:46;9.60;85.20
53802;DHT22;39709;53.334;6.534;2023-04-28T09:12:12;9.70;75.60
53802;DHT22;39709;53.334;6.534;2023-04-28T09:14:38;10.00;53.40
53802;DHT22;39709;53.334;6.534;2023-04-28T09:17:11;10.10;31.00
53802;DHT22;39709;53.334;6.534;2023-04-28T09:19:38;10.30;4.40
53802;DHT22;39709;53.334;6.534;2023-04-28T09:22:05;10.20;1.00
53802;DHT22;39709;53.334;6.534;2023-04-28T09:24:32;10.30;1.50
53802;DHT22;39709;53.334;6.534;2023-04-28T09:27:09;10.50;1.00
53802;DHT22;39709;53.334;6.534;2023-04-28T09:29:51;10.70;1.00
53802;DHT22;39709;53.334;6.534;2023-04-28T09:32:19;10.60;1.00
53802;DHT22;39709;53.334;6.534;2023-04-28T09:34:49;10.60;1.00
53802;DHT22;39709;53.334;6.534;2023-04-28T09:37:23;10.80;1.00
53802;DHT22;39709;53.334;6.534;2023-04-28T09:39:53;10.60;1.00
53802;DHT22;39709;53.334;6.534;2023-04-28T09:42:39;10.60;1.00
53802;DHT22;39709;53.334;6.534;2023-04-28T09:47:39;11.20;1.00
53802;DHT22;39709;53.334;6.534;2023-04-28T09:50:07;11.50;1.00
53802;DHT22;39709;53.334;6.534;2023-04-28T09:52:40;11.70;1.00
53802;DHT22;39709;53.334;6.534;2023-04-28T09:55:07;11.60;1.00
53802;DHT22;39709;53.334;6.534;2023-04-28T09:57:35;11.60;1.00
53802;DHT22;39709;53.334;6.534;2023-04-28T10:00:02;11.80;1.00
53802;DHT22;39709;53.334;6.534;2023-04-28T10:02:34;11.90;1.00
53802;DHT22;39709;53.334;6.534;2023-04-28T10:04:59;12.00;1.00
53802;DHT22;39709;53.334;6.534;2023-04-28T10:07:26;12.00;1.00
53802;DHT22;39709;53.334;6.534;2023-04-28T10:09:52;12.10;1.00
53802;DHT22;39709;53.334;6.534;2023-04-28T10:12:20;12.10;1.00
53802;DHT22;39709;53.334;6.534;2023-04-28T10:14:47;12.20;1.00
53802;DHT22;39709;53.334;6.534;2023-04-28T10:17:16;12.30;1.00
53802;DHT22;39709;53.334;6.534;2023-04-28T10:19:47;12.30;1.00
53802;DHT22;39709;53.334;6.534;2023-04-28T10:27:41;12.40;1.00
53802;DHT22;39709;53.334;6.534;2023-04-28T10:30:19;12.30;1.00
53802;DHT22;39709;53.334;6.534;2023-04-28T10:32:46;12.60;1.00
53802;DHT22;39709;53.334;6.534;2023-04-28T10:38:10;12.50;1.00
53802;DHT22;39709;53.334;6.534;2023-04-28T10:40:41;12.50;1.00
53802;DHT22;39709;53.334;6.534;2023-04-28T10:43:09;12.50;1.00
53802;DHT22;39709;53.334;6.534;2023-04-28T10:48:23;12.50;1.00
53802;DHT22;39709;53.334;6.534;2023-04-28T10:56:24;12.80;1.00
53802;DHT22;39709;53.334;6.534;2023-04-28T11:01:26;12.70;1.00
53802;DHT22;39709;53.334;6.534;2023-04-28T11:03:58;12.70;1.00
53802;DHT22;39709;53.334;6.534;2023-04-28T11:06:30;12.70;1.00
53802;DHT22;39709;53.334;6.534;2023-04-28T11:08:59;12.60;1.00
53802;DHT22;39709;53.334;6.534;2023-04-28T11:11:27;12.50;1.00
53802;DHT22;39709;53.334;6.534;2023-04-28T11:13:55;12.40;1.00
53802;DHT22;39709;53.334;6.534;2023-04-28T11:19:22;12.30;1.00
53802;DHT22;39709;53.334;6.534;2023-04-28T11:21:52;12.10;1.00
53802;DHT22;39709;53.334;6.534;2023-04-28T11:24:18;12.00;1.00
53802;DHT22;39709;53.334;6.534;2023-04-28T11:26:44;12.10;1.00
53802;DHT22;39709;53.334;6.534;2023-04-28T11:29:11;12.10;1.00
53802;DHT22;39709;53.334;6.534;2023-04-28T11:31:37;12.00;1.00
53802;DHT22;39709;53.334;6.534;2023-04-28T11:34:05;12.10;1.00
53802;DHT22;39709;53.334;6.534;2023-04-28T11:36:36;12.20;1.00
53802;DHT22;39709;53.334;6.534;2023-04-28T11:39:09;12.20;1.00
53802;DHT22;39709;53.334;6.534;2023-04-28T11:41:43;12.30;1.00
53802;DHT22;39709;53.334;6.534;2023-04-28T11:44:15;12.30;1.00
53802;DHT22;39709;53.334;6.534;2023-04-28T11:46:48;12.30;1.00
53802;DHT22;39709;53.334;6.534;2023-04-28T11:49:21;12.30;1.00
53802;DHT22;39709;53.334;6.534;2023-04-28T11:51:49;12.10;1.00
53802;DHT22;39709;53.334;6.534;2023-04-28T11:54:28;12.10;1.00
53802;DHT22;39709;53.334;6.534;2023-04-28T11:56:55;12.20;1.00
53802;DHT22;39709;53.334;6.534;2023-04-28T11:59:34;12.20;1.00
53802;DHT22;39709;53.334;6.534;2023-04-28T12:02:03;12.20;1.00
53802;DHT22;39709;53.334;6.534;2023-04-28T12:04:37;12.10;1.00
53802;DHT22;39709;53.334;6.534;2023-04-28T12:09:35;12.10;1.00
53802;DHT22;39709;53.334;6.534;2023-04-28T12:12:03;12.00;1.00
53802;DHT22;39709;53.334;6.534;2023-04-28T12:14:30;11.90;1.00
53802;DHT22;39709;53.334;6.534;2023-04-28T12:17:00;11.90;1.00
53802;DHT22;39709;53.334;6.534;2023-04-28T12:19:26;12.00;1.00
53802;DHT22;39709;53.334;6.534;2023-04-28T12:22:05;12.00;1.00
53802;DHT22;39709;53.334;6.534;2023-04-28T12:24:32;11.90;1.00
53802;DHT22;39709;53.334;6.534;2023-04-28T12:27:17;11.90;1.00
53802;DHT22;39709;53.334;6.534;2023-04-28T12:29:46;11.90;1.00
53802;DHT22;39709;53.334;6.534;2023-04-28T12:32:12;11.90;1.00
53802;DHT22;39709;53.334;6.534;2023-04-28T12:34:39;11.80;1.00
53802;DHT22;39709;53.334;6.534;2023-04-28T12:37:06;11.80;1.00
53802;DHT22;39709;53.334;6.534;2023-04-28T12:39:36;11.90;1.00
53802;DHT22;39709;53.334;6.534;2023-04-28T12:42:03;11.90;1.00
53802;DHT22;39709;53.334;6.534;2023-04-28T12:44:33;11.90;1.00
53802;DHT22;39709;53.334;6.534;2023-04-28T12:47:07;11.90;1.00
53802;DHT22;39709;53.334;6.534;2023-04-28T12:49:34;11.90;1.00
53802;DHT22;39709;53.334;6.534;2023-04-28T12:52:00;12.00;1.00
53802;DHT22;39709;53.334;6.534;2023-04-28T12:54:26;11.90;1.00
53802;DHT22;39709;53.334;6.534;2023-04-28T12:56:52;11.60;1.00
53802;DHT22;39709;53.334;6.534;2023-04-28T12:59:21;11.60;1.00
53802;DHT22;39709;53.334;6.534;2023-04-28T13:01:48;11.70;1.00
53802;DHT22;39709;53.334;6.534;2023-04-28T13:04:16;11.70;1.00
53802;DHT22;39709;53.334;6.534;2023-04-28T13:06:42;11.80;1.00
53802;DHT22;39709;53.334;6.534;2023-04-28T13:09:12;11.90;1.00
53802;DHT22;39709;53.334;6.534;2023-04-28T13:11:40;11.90;1.00
53802;DHT22;39709;53.334;6.534;2023-04-28T13:14:07;11.80;1.00
53802;DHT22;39709;53.334;6.534;2023-04-28T13:16:33;11.80;1.00
53802;DHT22;39709;53.334;6.534;2023-04-28T13:19:00;11.90;1.00
53802;DHT22;39709;53.334;6.534;2023-04-28T13:21:26;12.00;1.00
53802;DHT22;39709;53.334;6.534;2023-04-28T13:23:54;12.10;1.00
53802;DHT22;39709;53.334;6.534;2023-04-28T13:26:20;12.10;1.00
53802;DHT22;39709;53.334;6.534;2023-04-28T13:28:49;12.00;1.00
53802;DHT22;39709;53.334;6.534;2023-04-28T13:31:15;12.00;1.00
53802;DHT22;39709;53.334;6.534;2023-04-28T13:33:41;12.00;1.00
53802;DHT22;39709;53.334;6.534;2023-04-28T13:36:06;12.00;1.00
53802;DHT22;39709;53.334;6.534;2023-04-28T13:38:33;12.00;1.00
53802;DHT22;39709;53.334;6.534;2023-04-28T13:40:59;11.90;1.00
53802;DHT22;39709;53.334;6.534;2023-04-28T13:43:25;11.80;1.00
53802;DHT22;39709;53.334;6.534;2023-04-28T13:45:51;11.80;1.00
53802;DHT22;39709;53.334;6.534;2023-04-28T13:48:18;11.80;1.00
53802;DHT22;39709;53.334;6.534;2023-04-28T13:50:43;11.70;1.00
53802;DHT22;39709;53.334;6.534;2023-04-28T13:53:09;11.80;1.00
53802;DHT22;39709;53.334;6.534;2023-04-28T13:55:35;11.70;1.00
53802;DHT22;39709;53.334;6.534;2023-04-28T13:58:02;11.60;1.00
53802;DHT22;39709;53.334;6.534;2023-04-28T14:00:35;11.50;1.00
53802;DHT22;39709;53.334;6.534;2023-04-28T14:03:02;11.40;1.00
53802;DHT22;39709;53.334;6.534;2023-04-28T14:05:28;11.30;1.00
53802;DHT22;39709;53.334;6.534;2023-04-28T14:07:54;11.30;1.00
53802;DHT22;39709;53.334;6.534;2023-04-28T14:10:20;11.30;1.00
53802;DHT22;39709;53.334;6.534;2023-04-28T14:12:46;11.00;1.00
53802;DHT22;39709;53.334;6.534;2023-04-28T14:15:12;10.90;99.90
53802;DHT22;39709;53.334;6.534;2023-04-28T14:17:37;10.70;90.80
53802;DHT22;39709;53.334;6.534;2023-04-28T14:20:04;10.90;90.50
53802;DHT22;39709;53.334;6.534;2023-04-28T14:22:29;10.80;91.80
53802;DHT22;39709;53.334;6.534;2023-04-28T14:24:55;10.50;99.90
53802;DHT22;39709;53.334;6.534;2023-04-28T14:27:21;10.30;99.90
53802;DHT22;39709;53.334;6.534;2023-04-28T14:29:47;10.70;99.90
53802;DHT22;39709;53.334;6.534;2023-04-28T14:32:14;10.60;98.90
53802;DHT22;39709;53.334;6.534;2023-04-28T14:34:41;10.80;71.80
53802;DHT22;39709;53.334;6.534;2023-04-28T14:37:07;11.00;5.40
53802;DHT22;39709;53.334;6.534;2023-04-28T14:39:34;11.20;1.00
53802;DHT22;39709;53.334;6.534;2023-04-28T14:42:00;11.30;1.00
53802;DHT22;39709;53.334;6.534;2023-04-28T14:44:26;11.40;1.00
53802;DHT22;39709;53.334;6.534;2023-04-28T14:46:52;11.40;1.00
53802;DHT22;39709;53.334;6.534;2023-04-28T14:49:18;11.40;1.00
53802;DHT22;39709;53.334;6.534;2023-04-28T14:51:44;11.10;1.00
53802;DHT22;39709;53.334;6.534;2023-04-28T14:54:10;11.30;1.00
53802;DHT22;39709;53.334;6.534;2023-04-28T14:56:36;11.30;1.00
53802;DHT22;39709;53.334;6.534;2023-04-28T14:59:02;11.30;1.00
53802;DHT22;39709;53.334;6.534;2023-04-28T15:01:28;11.40;1.00
53802;DHT22;39709;53.334;6.534;2023-04-28T15:03:54;11.50;1.00
53802;DHT22;39709;53.334;6.534;2023-04-28T15:06:20;11.40;1.00
53802;DHT22;39709;53.334;6.534;2023-04-28T15:08:46;11.40;1.00
53802;DHT22;39709;53.334;6.534;2023-04-28T15:11:12;11.50;1.00
53802;DHT22;39709;53.334;6.534;2023-04-28T15:13:38;11.40;1.00
53802;DHT22;39709;53.334;6.534;2023-04-28T15:16:03;11.30;1.00
53802;DHT22;39709;53.334;6.534;2023-04-28T15:18:30;11.40;1.00
53802;DHT22;39709;53.334;6.534;2023-04-28T15:20:56;11.40;1.00
53802;DHT22;39709;53.334;6.534;2023-04-28T15:23:22;11.40;1.00
53802;DHT22;39709;53.334;6.534;2023-04-28T15:25:47;11.40;1.00
53802;DHT22;39709;53.334;6.534;2023-04-28T15:28:17;11.50;1.00
53802;DHT22;39709;53.334;6.534;2023-04-28T15:30:42;11.50;1.00
53802;DHT22;39709;53.334;6.534;2023-04-28T15:33:08;11.50;1.00
53802;DHT22;39709;53.334;6.534;2023-04-28T15:35:34;11.60;1.00
53802;DHT22;39709;53.334;6.534;2023-04-28T15:38:00;11.70;1.00
53802;DHT22;39709;53.334;6.534;2023-04-28T15:40:26;11.80;1.00
53802;DHT22;39709;53.334;6.534;2023-04-28T15:42:51;11.70;1.00
53802;DHT22;39709;53.334;6.534;2023-04-28T15:45:21;11.70;1.00
53802;DHT22;39709;53.334;6.534;2023-04-28T15:47:47;11.60;1.00
53802;DHT22;39709;53.334;6.534;2023-04-28T15:50:15;11.60;1.00
53802;DHT22;39709;53.334;6.534;2023-04-28T15:52:42;11.70;1.00
53802;DHT22;39709;53.334;6.534;2023-04-28T15:55:15;11.70;1.00
53802;DHT22;39709;53.334;6.534;2023-04-28T15:57:42;11.70;1.00
53802;DHT22;39709;53.334;6.534;2023-04-28T16:00:08;11.60;1.00
53802;DHT22;39709;53.334;6.534;2023-04-28T16:02:36;11.60;1.00
53802;DHT22;39709;53.334;6.534;2023-04-28T16:05:02;11.60;1.00
53802;DHT22;39709;53.334;6.534;2023-04-28T16:07:29;11.60;1.00
53802;DHT22;39709;53.334;6.534;2023-04-28T16:10:03;11.50;1.00